createdAt,value
2017-08-26T00:00:39.642Z,41.85
2017-08-26T00:03:07.998Z,42.31
2017-08-26T00:05:35.534Z,42.42
2017-08-26T00:08:03.143Z,42.06
2017-08-26T00:10:30.681Z,41.92
2017-08-26T00:12:58.444Z,41.98
2017-08-26T00:15:33.843Z,42.50
2017-08-26T00:20:49.987Z,42.77
2017-08-26T00:23:27.796Z,42.86
2017-08-26T00:26:07.275Z,42.68
2017-08-26T00:28:51.016Z,43.17
2017-08-26T00:31:22.719Z,42.74
2017-08-26T00:33:50.275Z,42.98
2017-08-26T00:36:17.863Z,42.93
2017-08-26T00:38:45.435Z,43.01
2017-08-26T00:41:12.970Z,43.27
2017-08-26T00:43:40.515Z,43.19
2017-08-26T00:46:08.114Z,43.82
2017-08-26T00:48:35.661Z,43.36
2017-08-26T00:51:03.214Z,43.09
2017-08-26T00:53:30.833Z,43.71
2017-08-26T00:55:58.389Z,44.71
2017-08-26T00:58:25.903Z,44.62
2017-08-26T01:00:53.510Z,44.38
2017-08-26T01:03:21.040Z,44.44
2017-08-26T01:05:48.601Z,44.71
2017-08-26T01:08:16.158Z,44.73
2017-08-26T01:10:44.019Z,44.60
2017-08-26T01:13:11.621Z,44.83
2017-08-26T01:15:39.221Z,45.02
2017-08-26T01:18:06.774Z,45.04
2017-08-26T01:20:34.353Z,45.35
2017-08-26T01:23:02.472Z,45.06
2017-08-26T01:25:30.011Z,44.75
2017-08-26T01:27:57.575Z,44.89
2017-08-26T01:30:25.203Z,44.79
2017-08-26T01:32:52.731Z,44.61
2017-08-26T01:35:20.266Z,44.40
2017-08-26T01:37:47.824Z,44.49
2017-08-26T01:40:15.348Z,44.22
2017-08-26T01:42:42.870Z,44.59
2017-08-26T01:45:10.457Z,44.88
2017-08-26T01:47:37.971Z,45.11
2017-08-26T01:50:05.509Z,45.09
2017-08-26T01:52:33.062Z,45.22
2017-08-26T01:55:00.603Z,44.83
2017-08-26T01:57:28.117Z,44.97
2017-08-26T01:59:55.679Z,44.86
2017-08-26T02:02:23.277Z,45.19
2017-08-26T02:04:50.800Z,45.59
2017-08-26T02:07:18.329Z,46.28
2017-08-26T02:09:45.883Z,45.70
2017-08-26T02:12:13.670Z,46.16
2017-08-26T02:14:41.185Z,46.16
2017-08-26T02:17:08.741Z,46.14
2017-08-26T02:19:36.264Z,45.98
2017-08-26T02:22:03.797Z,45.89
2017-08-26T02:24:31.395Z,45.69
2017-08-26T02:26:58.927Z,45.48
2017-08-26T02:29:26.440Z,46.05
2017-08-26T02:31:54.029Z,46.13
2017-08-26T02:34:21.566Z,46.42
2017-08-26T02:36:49.304Z,46.47
2017-08-26T02:39:16.898Z,46.67
2017-08-26T02:41:44.403Z,46.39
2017-08-26T02:44:11.972Z,45.94
2017-08-26T02:46:39.576Z,45.89
2017-08-26T02:49:07.741Z,46.19
2017-08-26T02:51:35.308Z,46.15
2017-08-26T02:54:02.894Z,46.02
2017-08-26T02:56:30.417Z,46.00
2017-08-26T02:58:58.268Z,46.35
2017-08-26T03:01:25.863Z,46.46
2017-08-26T03:03:53.407Z,46.10
2017-08-26T03:06:20.913Z,46.02
2017-08-26T03:08:48.452Z,46.48
2017-08-26T03:11:16.231Z,46.66
2017-08-26T03:13:43.749Z,47.03
2017-08-26T03:16:11.849Z,47.11
2017-08-26T03:18:39.385Z,47.19
2017-08-26T03:21:06.930Z,47.24
2017-08-26T03:23:34.499Z,46.70
2017-08-26T03:26:02.009Z,46.74
2017-08-26T03:28:29.501Z,46.76
2017-08-26T03:30:57.140Z,46.58
2017-08-26T03:33:24.688Z,47.23
2017-08-26T03:35:52.230Z,47.74
2017-08-26T03:38:19.812Z,47.37
2017-08-26T03:40:47.648Z,47.38
2017-08-26T03:43:15.180Z,47.24
2017-08-26T03:45:42.720Z,48.09
2017-08-26T03:48:10.252Z,47.83
2017-08-26T03:50:37.784Z,48.07
2017-08-26T03:53:05.342Z,47.70
2017-08-26T03:55:32.883Z,48.14
2017-08-26T03:58:00.391Z,48.59
2017-08-26T04:00:27.971Z,47.97
2017-08-26T04:02:55.507Z,47.97
2017-08-26T04:05:23.118Z,48.76
2017-08-26T04:07:50.666Z,48.09
2017-08-26T04:10:18.197Z,48.15
2017-08-26T04:12:45.733Z,47.91
2017-08-26T04:15:13.509Z,47.57
2017-08-26T04:17:41.067Z,47.70
2017-08-26T04:20:08.958Z,47.47
2017-08-26T04:22:36.650Z,47.50
2017-08-26T04:25:04.212Z,47.09
2017-08-26T04:27:32.697Z,46.93
2017-08-26T04:30:00.260Z,47.12
2017-08-26T04:32:27.812Z,46.94
2017-08-26T04:34:55.343Z,46.79
2017-08-26T04:37:22.868Z,46.75
2017-08-26T04:39:50.467Z,46.91
2017-08-26T04:42:17.988Z,46.72
2017-08-26T04:44:45.499Z,46.18
2017-08-26T04:47:13.050Z,46.27
2017-08-26T04:49:40.580Z,45.71
2017-08-26T04:52:08.193Z,44.90
2017-08-26T04:54:35.764Z,44.00
2017-08-26T04:57:03.376Z,43.13
2017-08-26T04:59:30.949Z,42.42
2017-08-26T05:01:58.538Z,41.53
2017-08-26T05:04:26.108Z,40.10
2017-08-26T05:06:53.667Z,39.48
2017-08-26T05:09:21.255Z,38.61
2017-08-26T05:11:48.833Z,37.83
2017-08-26T05:14:16.397Z,36.40
2017-08-26T05:16:44.000Z,36.30
2017-08-26T05:19:11.542Z,35.81
2017-08-26T05:21:39.135Z,35.36
2017-08-26T05:24:06.738Z,34.65
2017-08-26T05:26:35.775Z,34.59
2017-08-26T05:29:03.761Z,34.10
2017-08-26T05:31:31.351Z,33.38
2017-08-26T05:33:59.151Z,33.20
2017-08-26T05:36:26.744Z,32.77
2017-08-26T05:38:54.367Z,32.56
2017-08-26T05:41:22.166Z,32.58
2017-08-26T05:43:50.043Z,31.96
2017-08-26T05:46:17.640Z,32.29
2017-08-26T05:48:46.013Z,32.18
2017-08-26T05:51:13.752Z,31.62
2017-08-26T05:53:41.835Z,31.69
2017-08-26T05:56:10.068Z,31.56
2017-08-26T05:58:37.744Z,31.39
2017-08-26T06:01:06.115Z,30.94
2017-08-26T06:03:33.865Z,30.77
2017-08-26T06:09:22.756Z,30.14
2017-08-26T06:11:50.478Z,30.02
2017-08-26T06:14:18.124Z,30.19
2017-08-26T06:16:45.859Z,29.58
2017-08-26T06:19:13.503Z,29.48
2017-08-26T06:21:41.198Z,30.04
2017-08-26T06:24:08.959Z,29.09
2017-08-26T06:26:36.663Z,29.09
2017-08-26T06:29:04.295Z,28.52
2017-08-26T06:31:32.170Z,27.65
2017-08-26T06:33:59.787Z,27.49
2017-08-26T06:36:27.361Z,28.54
2017-08-26T06:38:55.027Z,28.70
2017-08-26T06:41:23.667Z,28.32
2017-08-26T06:43:51.313Z,28.62
2017-08-26T06:46:19.725Z,30.02
2017-08-26T06:48:47.996Z,29.94
2017-08-26T06:51:15.698Z,28.32
2017-08-26T06:53:43.451Z,27.67
2017-08-26T06:56:11.774Z,29.32
2017-08-26T06:58:40.284Z,28.19
2017-08-26T07:01:08.565Z,29.31
2017-08-26T07:03:37.016Z,28.63
2017-08-26T07:06:04.631Z,28.18
2017-08-26T07:08:32.228Z,27.82
2017-08-26T07:11:00.168Z,27.30
2017-08-26T07:13:28.309Z,26.88
2017-08-26T07:15:58.021Z,27.25
2017-08-26T07:18:29.596Z,27.60
2017-08-26T07:20:58.115Z,27.58
2017-08-26T07:23:26.165Z,27.98
2017-08-26T07:25:53.984Z,27.31
2017-08-26T07:28:22.402Z,26.21
2017-08-26T07:30:53.144Z,27.31
2017-08-26T07:33:23.026Z,27.73
2017-08-26T07:35:51.930Z,27.54
2017-08-26T07:38:23.636Z,27.79
2017-08-26T07:40:54.581Z,26.74
2017-08-26T07:43:26.351Z,26.21
2017-08-26T07:46:11.351Z,25.98
2017-08-26T07:48:40.400Z,26.49
2017-08-26T07:51:09.294Z,26.13
2017-08-26T07:53:38.212Z,26.52
2017-08-26T07:56:06.216Z,26.41
2017-08-26T07:58:33.735Z,26.38
2017-08-26T08:01:01.894Z,27.05
2017-08-26T08:03:30.696Z,26.51
2017-08-26T08:05:58.686Z,27.26
2017-08-26T08:08:26.381Z,26.94
2017-08-26T08:11:10.432Z,26.54
2017-08-26T08:13:42.837Z,25.81
2017-08-26T08:16:12.658Z,25.68
2017-08-26T08:18:43.916Z,25.71
2017-08-26T08:21:14.141Z,25.70
2017-08-26T08:23:42.907Z,26.14
2017-08-26T08:26:11.172Z,25.55
2017-08-26T08:28:38.792Z,24.88
2017-08-26T08:31:07.130Z,25.45
2017-08-26T08:33:36.436Z,24.88
2017-08-26T08:36:03.959Z,25.43
2017-08-26T08:38:31.511Z,26.53
2017-08-26T08:40:59.043Z,27.35
2017-08-26T08:43:27.521Z,26.66
2017-08-26T08:45:56.356Z,25.84
2017-08-26T08:48:24.452Z,25.12
2017-08-26T08:50:52.686Z,24.60
2017-08-26T08:53:20.259Z,25.39
2017-08-26T08:55:47.857Z,25.11
2017-08-26T08:58:15.396Z,24.49
2017-08-26T09:00:42.977Z,23.29
2017-08-26T09:03:10.501Z,22.92
2017-08-26T09:05:38.327Z,23.35
2017-08-26T09:08:06.593Z,21.86
2017-08-26T09:10:34.115Z,22.74
2017-08-26T09:13:01.928Z,22.38
2017-08-26T09:15:29.581Z,22.48
2017-08-26T09:17:57.310Z,21.70
2017-08-26T09:20:25.233Z,21.23
2017-08-26T09:22:52.825Z,21.39
2017-08-26T09:25:20.641Z,20.53
2017-08-26T09:27:48.504Z,19.33
2017-08-26T09:30:16.232Z,19.22
2017-08-26T09:32:45.347Z,19.33
2017-08-26T09:35:12.846Z,19.13
2017-08-26T09:57:21.943Z,21.29
2017-08-26T10:02:35.834Z,20.06
2017-08-26T10:05:03.370Z,19.85
2017-08-26T10:07:30.887Z,16.80
2017-08-26T10:09:58.463Z,17.60
2017-08-26T10:12:26.343Z,17.93
2017-08-26T10:14:54.527Z,18.96
2017-08-26T10:17:22.071Z,19.31
2017-08-26T10:19:49.570Z,17.57
2017-08-26T10:22:17.065Z,16.95
2017-08-26T10:24:44.619Z,17.00
2017-08-26T10:27:12.408Z,16.59
2017-08-26T10:29:46.561Z,16.77
2017-08-26T10:32:14.245Z,17.89
2017-08-26T10:34:42.389Z,17.04
2017-08-26T10:37:10.938Z,17.50
2017-08-26T10:39:38.760Z,16.50
2017-08-26T10:42:06.273Z,16.33
2017-08-26T10:44:33.893Z,16.93
2017-08-26T10:47:01.445Z,17.36
2017-08-26T10:49:28.984Z,17.31
2017-08-26T10:51:56.537Z,17.88
2017-08-26T10:54:24.116Z,17.68
2017-08-26T10:56:51.657Z,17.63
2017-08-26T10:59:19.184Z,17.47
2017-08-26T11:01:47.871Z,17.14
2017-08-26T11:04:15.373Z,17.30
2017-08-26T11:06:42.898Z,17.41
2017-08-26T11:09:10.689Z,17.24
2017-08-26T11:11:38.222Z,16.64
2017-08-26T11:14:06.085Z,16.65
2017-08-26T11:16:33.621Z,16.30
2017-08-26T11:19:01.362Z,16.51
2017-08-26T11:21:28.868Z,16.82
2017-08-26T11:23:56.678Z,17.27
2017-08-26T11:26:24.513Z,17.77
2017-08-26T11:28:52.076Z,17.11
2017-08-26T11:31:22.778Z,17.36
2017-08-26T11:33:51.632Z,17.30
2017-08-26T11:36:57.907Z,17.45
2017-08-26T11:42:58.524Z,16.75
2017-08-26T11:48:36.039Z,17.58
2017-08-26T11:51:05.389Z,17.63
2017-08-26T11:53:36.060Z,17.11
2017-08-26T11:56:07.985Z,17.24
2017-08-26T11:58:39.782Z,17.46
2017-08-26T12:01:11.847Z,17.35
2017-08-26T12:03:44.353Z,17.56
2017-08-26T12:06:14.780Z,17.66
2017-08-26T12:08:46.381Z,16.58
2017-08-26T12:11:15.878Z,16.92
2017-08-26T12:13:48.227Z,16.66
2017-08-26T12:16:22.342Z,16.82
2017-08-26T12:18:54.993Z,17.56
2017-08-26T12:21:26.443Z,18.87
2017-08-26T12:23:58.765Z,16.99
2017-08-26T12:26:30.053Z,18.77
2017-08-26T12:29:07.017Z,16.88
2017-08-26T12:31:38.564Z,16.91
2017-08-26T12:34:09.565Z,16.79
2017-08-26T12:36:38.335Z,17.23
2017-08-26T12:41:45.396Z,17.23
2017-08-26T12:44:14.546Z,17.38
2017-08-26T12:46:49.010Z,17.27
2017-08-26T12:49:19.342Z,17.26
2017-08-26T12:51:52.488Z,16.57
2017-08-26T12:54:22.221Z,17.23
2017-08-26T12:56:52.851Z,16.46
2017-08-26T12:59:21.570Z,16.30
2017-08-26T13:01:51.666Z,16.59
2017-08-26T13:04:25.173Z,16.55
2017-08-26T13:06:58.430Z,17.03
2017-08-26T13:09:28.774Z,17.35
2017-08-26T13:11:57.876Z,19.18
2017-08-26T13:17:12.980Z,18.95
2017-08-26T13:19:41.821Z,19.74
2017-08-26T13:22:09.719Z,17.77
2017-08-26T13:24:38.464Z,18.67
2017-08-26T13:30:38.852Z,18.38
2017-08-26T13:33:06.630Z,17.87
2017-08-26T13:35:34.344Z,17.91
2017-08-26T13:38:04.091Z,18.70
2017-08-26T13:40:32.178Z,18.88
2017-08-26T13:43:00.794Z,17.60
2017-08-26T13:45:28.537Z,17.92
2017-08-26T13:47:58.656Z,17.95
2017-08-26T13:50:26.573Z,19.12
2017-08-26T13:52:54.720Z,17.75
2017-08-26T13:55:23.423Z,18.38
2017-08-26T13:57:51.065Z,18.16
2017-08-26T14:00:18.997Z,17.18
2017-08-26T14:02:47.420Z,18.12
2017-08-26T14:05:15.032Z,17.45
2017-08-26T14:07:42.648Z,17.00
2017-08-26T14:10:10.203Z,16.67
2017-08-26T14:12:38.775Z,17.10
2017-08-26T14:15:07.068Z,17.79
2017-08-26T14:17:35.400Z,17.19
2017-08-26T14:20:07.074Z,18.17
2017-08-26T14:22:34.864Z,17.04
2017-08-26T14:25:03.003Z,18.75
2017-08-26T14:27:30.656Z,17.69
2017-08-26T14:29:58.295Z,18.99
2017-08-26T14:32:26.383Z,17.98
2017-08-26T14:34:54.001Z,18.46
2017-08-26T14:37:22.410Z,18.15
2017-08-26T14:39:50.211Z,17.51
2017-08-26T14:42:17.804Z,17.68
2017-08-26T14:44:45.460Z,17.91
2017-08-26T14:47:13.100Z,18.38
2017-08-26T14:49:40.899Z,18.91
2017-08-26T14:52:11.856Z,18.25
2017-08-26T14:54:40.120Z,18.45
2017-08-26T14:57:08.582Z,19.01
2017-08-26T14:59:36.338Z,18.45
2017-08-26T15:02:04.609Z,19.23
2017-08-26T15:04:32.194Z,20.27
2017-08-26T15:06:59.830Z,20.02
2017-08-26T15:09:27.428Z,19.56
2017-08-26T15:11:55.316Z,19.01
2017-08-26T15:14:23.073Z,19.19
2017-08-26T15:16:50.701Z,19.82
2017-08-26T15:19:18.336Z,19.71
2017-08-26T15:21:45.902Z,19.41
2017-08-26T15:24:15.713Z,20.00
2017-08-26T15:26:56.389Z,19.65
2017-08-26T15:29:27.669Z,19.35
2017-08-26T15:31:55.523Z,19.97
2017-08-26T15:34:24.498Z,19.80
2017-08-26T15:36:54.165Z,20.10
2017-08-26T15:39:31.334Z,20.10
2017-08-26T15:42:00.633Z,20.69
2017-08-26T15:44:28.629Z,19.99
2017-08-26T15:46:56.383Z,20.77
2017-08-26T15:49:24.243Z,20.96
2017-08-26T15:51:51.867Z,20.48
2017-08-26T15:54:19.521Z,20.45
2017-08-26T15:56:47.133Z,20.65
2017-08-26T15:59:16.959Z,21.54
2017-08-26T16:01:45.001Z,21.03
2017-08-26T16:04:12.643Z,20.89
2017-08-26T16:06:40.259Z,20.98
2017-08-26T16:09:07.856Z,20.80
2017-08-26T16:11:35.453Z,21.60
2017-08-26T16:14:03.060Z,21.32
2017-08-26T16:16:31.523Z,21.40
2017-08-26T16:18:59.149Z,21.43
2017-08-26T16:21:26.722Z,22.03
2017-08-26T16:23:54.407Z,22.85
2017-08-26T16:26:22.202Z,22.67
2017-08-26T16:28:49.868Z,22.76
2017-08-26T16:31:17.469Z,22.55
2017-08-26T16:33:46.899Z,22.81
2017-08-26T16:36:14.500Z,22.69
2017-08-26T16:38:42.180Z,23.24
2017-08-26T16:41:09.859Z,22.47
2017-08-26T16:43:37.659Z,22.77
2017-08-26T16:46:05.318Z,22.67
2017-08-26T16:48:32.963Z,23.03
2017-08-26T16:51:00.662Z,22.99
2017-08-26T16:53:29.907Z,23.33
2017-08-26T16:55:59.347Z,23.68
2017-08-26T16:58:27.143Z,24.13
2017-08-26T17:00:54.779Z,24.90
2017-08-26T17:03:22.493Z,24.11
2017-08-26T17:05:50.231Z,23.81
2017-08-26T17:08:17.920Z,25.27
2017-08-26T17:10:45.525Z,25.27
2017-08-26T17:13:18.184Z,24.46
2017-08-26T17:15:45.838Z,24.23
2017-08-26T17:18:13.665Z,25.59
2017-08-26T17:20:41.277Z,25.03
2017-08-26T17:23:08.965Z,24.76
2017-08-26T17:25:36.609Z,25.14
2017-08-26T17:28:04.278Z,25.15
2017-08-26T17:30:32.057Z,24.42
2017-08-26T17:32:59.693Z,24.64
2017-08-26T17:35:27.246Z,24.54
2017-08-26T17:37:58.167Z,25.11
2017-08-26T17:40:25.765Z,24.99
2017-08-26T17:42:53.407Z,25.65
2017-08-26T17:45:21.396Z,25.49
2017-08-26T17:47:49.004Z,25.11
2017-08-26T17:50:21.606Z,25.32
2017-08-26T17:52:49.201Z,25.22
2017-08-26T17:55:17.316Z,25.09
2017-08-26T17:57:45.217Z,25.26
2017-08-26T18:00:13.661Z,26.32
2017-08-26T18:02:41.436Z,25.97
2017-08-26T18:05:09.071Z,27.09
2017-08-26T18:07:36.724Z,28.00
2017-08-26T18:10:04.374Z,26.95
2017-08-26T18:12:31.992Z,25.88
2017-08-26T18:15:00.288Z,26.21
2017-08-26T18:17:35.968Z,26.11
2017-08-26T18:20:04.468Z,26.34
2017-08-26T18:22:39.634Z,26.25
2017-08-26T18:25:11.811Z,26.06
2017-08-26T18:27:48.557Z,26.25
2017-08-26T18:30:20.838Z,26.45
2017-08-26T18:32:53.025Z,26.73
2017-08-26T18:35:24.045Z,26.77
2017-08-26T18:37:56.206Z,26.81
2017-08-26T18:40:29.910Z,26.84
2017-08-26T18:42:59.877Z,26.91
2017-08-26T18:45:27.631Z,27.19
2017-08-26T18:47:56.236Z,28.72
2017-08-26T18:50:24.277Z,28.41
2017-08-26T18:52:52.668Z,27.88
2017-08-26T18:55:22.940Z,28.43
2017-08-26T18:57:51.840Z,28.42
2017-08-26T19:00:19.671Z,28.90
2017-08-26T19:06:13.660Z,29.11
2017-08-26T19:08:44.060Z,29.34
2017-08-26T19:18:43.997Z,29.83
2017-08-26T19:21:12.464Z,30.11
2017-08-26T19:23:40.002Z,30.54
2017-08-26T19:26:08.915Z,30.69
2017-08-26T19:28:36.452Z,30.80
2017-08-26T19:31:04.963Z,31.24
2017-08-26T19:33:32.561Z,32.04
2017-08-26T19:36:00.099Z,31.98
2017-08-26T19:38:27.896Z,31.83
2017-08-26T19:40:55.438Z,32.06
2017-08-26T19:43:23.491Z,32.13
2017-08-26T19:45:51.057Z,31.95
2017-08-26T19:48:18.570Z,31.77
2017-08-26T19:50:46.107Z,32.02
2017-08-26T19:53:13.894Z,31.98
2017-08-26T19:55:41.421Z,32.04
2017-08-26T19:58:11.728Z,32.25
2017-08-26T20:00:42.092Z,32.43
2017-08-26T20:03:09.670Z,32.69
2017-08-26T20:05:37.214Z,33.39
2017-08-26T20:08:05.131Z,34.62
2017-08-26T20:10:33.728Z,35.06
2017-08-26T20:13:02.594Z,34.57
2017-08-26T20:15:30.298Z,34.68
2017-08-26T20:17:58.060Z,35.00
2017-08-26T20:20:25.640Z,35.35
2017-08-26T20:22:53.266Z,35.07
2017-08-26T20:25:20.806Z,35.61
2017-08-26T20:27:49.929Z,36.07
2017-08-26T20:30:17.696Z,36.82
2017-08-26T20:32:46.321Z,36.99
2017-08-26T20:35:13.879Z,37.68
2017-08-26T20:37:41.496Z,37.29
2017-08-26T20:40:10.292Z,37.46
2017-08-26T20:42:39.463Z,37.37
2017-08-26T20:45:13.689Z,37.10
2017-08-26T20:47:41.252Z,36.02
2017-08-26T20:50:09.004Z,36.52
2017-08-26T20:52:42.062Z,36.86
2017-08-26T20:55:16.732Z,36.68
2017-08-26T20:57:45.568Z,36.94
2017-08-26T21:00:14.600Z,36.77
2017-08-26T21:02:42.221Z,37.06
2017-08-26T21:05:09.805Z,37.12
2017-08-26T21:07:40.341Z,37.27
2017-08-26T21:10:09.580Z,37.46
2017-08-26T21:12:37.173Z,37.95
2017-08-26T21:15:05.469Z,38.07
2017-08-26T21:17:33.224Z,38.14
2017-08-26T21:20:00.779Z,37.72
2017-08-26T21:22:28.325Z,37.96
2017-08-26T21:24:55.966Z,38.48
2017-08-26T21:27:23.539Z,38.62
2017-08-26T21:29:51.134Z,38.29
2017-08-26T21:32:18.859Z,38.68
2017-08-26T21:34:46.379Z,38.28
2017-08-26T21:37:13.919Z,38.64
2017-08-26T21:39:41.735Z,38.46
2017-08-26T21:42:09.936Z,38.30
2017-08-26T21:44:37.460Z,38.30
2017-08-26T21:47:06.937Z,38.05
2017-08-26T21:49:34.491Z,38.28
2017-08-26T21:52:01.997Z,39.40
2017-08-26T21:54:29.603Z,38.27
2017-08-26T21:56:57.135Z,38.19
2017-08-26T21:59:25.024Z,38.26
2017-08-26T22:01:53.402Z,38.51
2017-08-26T22:04:20.956Z,38.49
2017-08-26T22:06:48.701Z,38.51
2017-08-26T22:09:16.300Z,38.81
2017-08-26T22:11:44.148Z,39.02
2017-08-26T22:14:11.989Z,38.73
2017-08-26T22:16:39.831Z,38.82
2017-08-26T22:19:07.471Z,39.05
2017-08-26T22:21:36.822Z,39.16
2017-08-26T22:24:04.411Z,38.85
2017-08-26T22:26:31.940Z,39.08
2017-08-26T22:28:59.453Z,39.26
2017-08-26T22:31:27.011Z,39.69
2017-08-26T22:33:54.772Z,39.89
2017-08-26T22:36:22.347Z,40.20
2017-08-26T22:38:49.940Z,40.23
2017-08-26T22:41:17.476Z,40.60
2017-08-26T22:43:45.128Z,40.40
2017-08-26T22:46:12.778Z,40.46
2017-08-26T22:48:41.301Z,40.06
2017-08-26T22:51:08.850Z,40.03
2017-08-26T22:53:36.448Z,39.53
2017-08-26T22:56:04.028Z,39.63
2017-08-26T22:58:31.577Z,39.73
2017-08-26T23:00:59.294Z,39.98
2017-08-26T23:03:28.205Z,40.00
2017-08-26T23:05:55.728Z,40.42
2017-08-26T23:08:23.310Z,40.76
2017-08-26T23:10:50.868Z,41.20
2017-08-26T23:13:18.437Z,41.24
2017-08-26T23:15:46.012Z,41.34
2017-08-26T23:18:13.634Z,41.39
2017-08-26T23:20:41.194Z,41.80
2017-08-26T23:23:08.804Z,41.87
2017-08-26T23:25:36.346Z,41.74
2017-08-26T23:28:04.024Z,41.97
2017-08-26T23:30:31.700Z,42.03
2017-08-26T23:33:00.094Z,42.48
2017-08-26T23:35:27.701Z,42.29
2017-08-26T23:37:55.642Z,42.28
2017-08-26T23:40:23.205Z,42.32
2017-08-26T23:42:50.829Z,42.51
2017-08-26T23:45:19.497Z,42.31
2017-08-26T23:47:47.560Z,42.00
2017-08-26T23:50:15.401Z,42.12
2017-08-26T23:52:44.795Z,41.91
2017-08-26T23:55:13.089Z,41.87
2017-08-26T23:57:41.056Z,41.86
